Time;durP1;ratioP1;P1;durP2;ratioP2;P2;SDS_P1;SDS_P2;PMS_P1;PMS_P2;Temp;Humidity;BMP_temperature;BMP_pressure;BME280_temperature;BME280_humidity;BME280_pressure;Samples;Min_cycle;Max_cycle;Signal;HPM_P1;HPM_P2
2022/05/11 00:00:54;;;;;;;;;26.00;25.50;;;;;17.87;55.59;99730.63;4952455;28;9706;-78
2022/05/11 00:03:23;;;;;;;;;22.00;20.25;;;;;17.87;55.37;99735.88;4967493;28;8874;-78
2022/05/11 00:05:51;;;;;;;;;28.25;28.25;;;;;17.85;55.29;99738.56;4967250;28;8956;-79
2022/05/11 00:08:20;;;;;;;;;32.75;29.50;;;;;17.85;55.44;99737.72;4966382;28;8881;-77
2022/05/11 00:10:49;;;;;;;;;25.75;25.50;;;;;17.85;55.42;99740.34;4950982;28;8847;-79
2022/05/11 00:13:19;;;;;;;;;27.75;27.25;;;;;17.83;55.81;99740.34;4885313;29;8873;-79
2022/05/11 00:15:47;;;;;;;;;29.00;28.50;;;;;17.81;55.47;99734.25;4932193;29;8995;-79
2022/05/11 00:18:16;;;;;;;;;26.75;26.75;;;;;17.80;55.48;99729.88;4932086;29;8848;-77
2022/05/11 00:20:44;;;;;;;;;28.75;27.25;;;;;17.79;55.23;99729.91;4932190;29;8860;-79
2022/05/11 00:23:13;;;;;;;;;29.75;27.50;;;;;17.56;56.30;99726.13;4932421;29;8905;-78
2022/05/11 00:25:44;;;;;;;;;24.00;23.50;;;;;17.48;56.58;99725.44;4949751;28;8895;-77
2022/05/11 00:28:13;;;;;;;;;25.25;25.25;;;;;17.49;56.11;99720.16;5042394;28;9775;-78
2022/05/11 00:30:43;;;;;;;;;28.50;28.50;;;;;17.51;56.72;99720.97;5013114;28;9017;-78
2022/05/11 00:33:14;;;;;;;;;26.75;23.75;;;;;17.52;56.70;99721.81;5022227;28;8830;-77
2022/05/11 00:35:45;;;;;;;;;26.00;26.00;;;;;17.52;56.46;99722.72;5025959;28;8862;-78
2022/05/11 00:38:15;;;;;;;;;24.25;24.25;;;;;17.53;56.39;99729.69;5009450;28;8834;-79
2022/05/11 00:40:47;;;;;;;;;27.25;26.25;;;;;17.55;56.45;99721.75;5025956;28;9000;-78
2022/05/11 00:43:26;;;;;;;;;27.75;25.25;;;;;17.56;56.49;99723.50;5022451;28;8863;-78
2022/05/11 00:46:07;;;;;;;;;27.00;26.00;;;;;17.56;56.04;99720.88;5027749;28;8850;-78
2022/05/11 00:51:25;;;;;;;;;33.00;29.00;;;;;17.54;56.40;99717.38;5051099;28;8844;-78
2022/05/11 00:53:55;;;;;;;;;24.50;23.50;;;;;17.54;56.23;99712.09;4975099;28;8853;-77
2022/05/11 00:56:25;;;;;;;;;26.50;25.00;;;;;17.52;55.91;99714.81;4959316;28;8851;-79
2022/05/11 00:58:59;;;;;;;;;29.00;27.00;;;;;17.52;56.29;99721.81;4974656;28;8970;-78
2022/05/11 01:01:29;;;;;;;;;30.50;27.25;;;;;17.51;56.69;99720.97;4994687;28;8872;-79
2022/05/11 01:04:04;;;;;;;;;28.25;26.50;;;;;17.52;56.52;99721.81;4992152;28;8967;-78
2022/05/11 01:06:34;;;;;;;;;26.25;25.00;;;;;17.51;56.78;99723.59;5051764;28;8883;-77
2022/05/11 01:09:06;;;;;;;;;30.50;29.50;;;;;17.51;56.37;99728.88;5034930;28;8947;-79
2022/05/11 01:11:39;;;;;;;;;21.75;20.00;;;;;17.51;56.63;99728.88;5018718;28;9736;-77
2022/05/11 01:14:11;;;;;;;;;27.50;25.75;;;;;17.51;56.79;99718.34;5035225;28;8858;-77
2022/05/11 01:16:42;;;;;;;;;30.50;28.00;;;;;17.51;56.91;99720.13;5032907;28;8865;-77
2022/05/11 01:19:19;;;;;;;;;26.50;26.00;;;;;17.51;56.43;99714.84;4984953;28;8837;-77
2022/05/11 01:22:04;;;;;;;;;31.00;28.75;;;;;17.51;56.62;99718.34;5016588;28;8850;-77
2022/05/11 01:24:39;;;;;;;;;27.25;25.25;;;;;17.48;56.99;99710.50;5017148;28;9697;-77
2022/05/11 01:27:30;;;;;;;;;26.75;26.00;;;;;17.43;56.89;99707.13;5032484;28;8841;-80
2022/05/11 01:30:01;;;;;;;;;25.50;24.75;;;;;17.35;57.41;99711.72;5032829;28;8956;-78
2022/05/11 01:32:31;;;;;;;;;26.50;24.75;;;;;17.20;57.72;99709.47;5012325;28;8850;-75
2022/05/11 01:35:12;;;;;;;;;26.67;26.33;;;;;17.22;57.63;99711.19;5052845;28;9715;-77
2022/05/11 01:37:49;;;;;;;;;25.25;24.00;;;;;17.24;57.98;99711.13;5052373;28;8858;-78
2022/05/11 01:40:19;;;;;;;;;29.50;27.25;;;;;17.27;57.95;99711.91;5054849;28;8909;-78
2022/05/11 01:42:50;;;;;;;;;29.25;28.50;;;;;17.31;57.67;99712.72;5035444;28;8871;-78
2022/05/11 01:45:19;;;;;;;;;25.50;24.75;;;;;17.33;57.54;99710.88;5055579;28;8939;-78
2022/05/11 01:47:48;;;;;;;;;25.50;25.50;;;;;17.33;57.48;99706.50;5055270;28;9608;-78
2022/05/11 01:50:17;;;;;;;;;27.50;27.50;;;;;17.30;57.92;99705.72;5004275;28;8858;-79
2022/05/11 01:52:46;;;;;;;;;29.00;26.75;;;;;17.30;57.66;99709.22;5005775;28;8851;-79
2022/05/11 01:55:15;;;;;;;;;26.50;25.50;;;;;17.31;57.51;99707.44;5021041;28;8838;-80
2022/05/11 01:57:45;;;;;;;;;26.25;24.25;;;;;17.27;57.81;99701.38;5040511;28;8827;-78
2022/05/11 02:00:14;;;;;;;;;30.00;25.50;;;;;17.18;58.53;99703.38;5020763;28;8977;-78
2022/05/11 02:02:43;;;;;;;;;27.00;25.75;;;;;17.17;58.21;99704.31;5055957;28;8934;-79
2022/05/11 02:07:58;;;;;;;;;29.75;29.50;;;;;17.14;58.22;99706.09;5031877;28;8854;-79
2022/05/11 02:10:27;;;;;;;;;30.50;29.50;;;;;17.13;58.22;99707.00;5033066;28;8842;-77
2022/05/11 02:12:58;;;;;;;;;24.50;23.25;;;;;17.13;58.05;99704.38;5033257;28;8983;-80
2022/05/11 02:15:27;;;;;;;;;31.25;29.25;;;;;17.15;57.85;99705.19;5023811;28;8844;-77
2022/05/11 02:17:56;;;;;;;;;27.25;25.50;;;;;17.17;58.17;99701.66;5053052;28;8832;-78
2022/05/11 02:20:25;;;;;;;;;27.75;27.00;;;;;17.17;58.32;99701.66;5052934;28;8840;-77
2022/05/11 02:22:53;;;;;;;;;31.50;27.75;;;;;17.18;58.28;99700.75;5032155;28;8841;-77
2022/05/11 02:25:22;;;;;;;;;30.50;29.50;;;;;17.09;57.90;99699.22;5040892;28;8954;-77
2022/05/11 02:27:53;;;;;;;;;25.50;24.00;;;;;16.92;58.99;99705.75;5020176;28;8880;-78
2022/05/11 02:30:25;;;;;;;;;31.50;28.00;;;;;16.80;59.37;99711.25;5053312;28;9678;-75
2022/05/11 02:32:55;;;;;;;;;27.00;27.00;;;;;16.71;59.20;99704.47;5020296;28;8848;-77
2022/05/11 02:35:24;;;;;;;;;27.75;25.75;;;;;16.70;59.34;99713.25;5052456;28;8985;-77
2022/05/11 02:37:56;;;;;;;;;25.50;25.50;;;;;16.74;59.21;99711.41;5053812;28;8882;-77
2022/05/11 02:40:27;;;;;;;;;31.00;28.50;;;;;16.80;58.93;99715.69;5019968;28;8835;-78
2022/05/11 02:42:57;;;;;;;;;29.75;27.00;;;;;16.84;59.14;99720.00;5001854;28;8847;-79
2022/05/11 02:45:28;;;;;;;;;23.25;22.50;;;;;16.89;58.87;99720.78;5054868;28;8870;-78
2022/05/11 02:47:57;;;;;;;;;31.00;29.75;;;;;16.89;58.60;99720.78;5054364;28;8862;-78
2022/05/11 02:50:29;;;;;;;;;27.50;27.50;;;;;16.90;58.91;99711.94;5055110;28;8888;-75
2022/05/11 02:52:57;;;;;;;;;28.25;27.50;;;;;16.89;58.63;99713.72;5072378;28;8844;-77
2022/05/11 02:55:26;;;;;;;;;30.75;28.75;;;;;16.90;58.61;99717.22;5065887;28;8951;-76
2022/05/11 02:57:54;;;;;;;;;25.00;24.75;;;;;16.92;58.27;99716.28;5051924;28;8866;-77
2022/05/11 03:00:23;;;;;;;;;30.75;28.75;;;;;16.95;58.61;99718.84;5036348;28;8862;-79
2022/05/11 03:02:53;;;;;;;;;28.75;26.50;;;;;16.98;58.42;99722.31;5068849;28;8839;-76
2022/05/11 03:05:22;;;;;;;;;28.00;27.50;;;;;17.01;58.44;99733.63;5060229;28;9694;-78
2022/05/11 03:07:51;;;;;;;;;30.00;29.50;;;;;17.02;58.33;99723.97;5054216;28;9612;-76
2022/05/11 03:10:19;;;;;;;;;40.00;34.50;;;;;17.05;58.34;99732.69;5053027;28;8857;-76
2022/05/11 03:12:48;;;;;;;;;67.67;54.33;;;;;17.07;58.37;99727.34;5034310;28;8859;-77
2022/05/11 03:15:17;;;;;;;;;36.25;34.50;;;;;17.06;57.86;99736.19;5067734;28;9029;-77
2022/05/11 03:17:45;;;;;;;;;30.75;29.25;;;;;17.00;58.38;99734.56;5050690;28;8885;-77
2022/05/11 03:20:15;;;;;;;;;28.25;27.75;;;;;17.01;58.18;99735.41;5017158;28;8864;-77
2022/05/11 03:22:51;;;;;;;;;26.50;26.50;;;;;17.01;58.11;99738.91;5072282;28;8856;-76
2022/05/11 03:25:20;;;;;;;;;31.00;29.25;;;;;16.99;57.95;99743.34;5070372;28;9002;-77
2022/05/11 03:27:49;;;;;;;;;24.40;23.20;;;;;17.01;58.26;99746.81;5053057;28;8847;-77
2022/05/11 03:30:18;;;;;;;;;32.25;30.75;;;;;17.01;57.96;99746.81;5070681;28;8840;-75
2022/05/11 03:35:35;;;;;;;;;31.25;30.00;;;;;17.00;58.49;99755.63;5037824;28;8864;-77
2022/05/11 03:38:04;;;;;;;;;31.25;29.25;;;;;17.02;58.56;99748.56;5035760;28;8872;-78
2022/05/11 03:40:37;;;;;;;;;33.00;31.25;;;;;17.04;58.40;99757.28;5054903;28;8865;-77
2022/05/11 03:43:06;;;;;;;;;26.75;25.50;;;;;17.09;58.28;99759.81;5054260;28;8853;-75
2022/05/11 03:45:35;;;;;;;;;61.67;51.00;;;;;17.13;57.90;99758.84;5071396;28;8833;-77
2022/05/11 03:48:04;;;;;;;;;64.50;49.00;;;;;17.17;57.96;99759.63;5001476;28;8920;-79
2022/05/11 03:50:34;;;;;;;;;40.00;34.50;;;;;17.20;58.00;99755.16;5051862;28;8987;-76
2022/05/11 03:53:03;;;;;;;;;37.00;33.25;;;;;17.24;57.99;99756.81;5052706;28;8927;-78
2022/05/11 03:55:32;;;;;;;;;30.00;30.00;;;;;17.29;57.82;99754.06;5052134;28;8873;-76
2022/05/11 03:58:01;;;;;;;;;28.75;27.50;;;;;17.33;57.58;99755.69;5035412;28;9091;-79
2022/05/11 04:00:30;;;;;;;;;30.75;28.75;;;;;17.26;57.87;99762.91;5063167;28;8833;-80
2022/05/11 04:02:59;;;;;;;;;31.50;30.50;;;;;17.19;58.27;99766.59;5072760;28;8930;-77
2022/05/11 04:05:29;;;;;;;;;25.25;24.50;;;;;17.09;58.02;99760.69;5071462;28;8864;-78
2022/05/11 04:07:59;;;;;;;;;56.25;44.50;;;;;17.02;58.28;99772.25;5072085;28;8911;-78
2022/05/11 04:10:27;;;;;;;;;52.75;43.75;;;;;17.00;58.36;99771.44;5055181;28;9116;-78
2022/05/11 04:12:58;;;;;;;;;77.50;65.50;;;;;16.95;58.97;99774.16;5072146;28;8841;-76
2022/05/11 04:15:31;;;;;;;;;29.75;28.50;;;;;17.00;58.65;99778.47;5054730;28;10031;-78
2022/05/11 04:17:59;;;;;;;;;42.50;36.50;;;;;17.01;58.64;99782.84;5071980;28;8857;-79
2022/05/11 04:20:28;;;;;;;;;30.25;29.50;;;;;17.06;58.64;99775.69;5034052;28;9601;-76
2022/05/11 04:22:58;;;;;;;;;124.25;112.00;;;;;17.09;58.91;99779.13;5018767;28;8871;-77
2022/05/11 04:25:27;;;;;;;;;36.00;33.75;;;;;17.00;58.94;99776.72;5034286;28;11599;-77
2022/05/11 04:27:55;;;;;;;;;31.00;30.00;;;;;17.01;59.24;99788.09;5053429;28;8882;-78
2022/05/11 04:30:26;;;;;;;;;41.75;37.00;;;;;17.07;58.96;99790.59;5053504;28;8844;-77
2022/05/11 04:32:55;;;;;;;;;49.25;41.00;;;;;17.21;59.12;99788.50;5074091;28;8948;-77
2022/05/11 04:35:30;;;;;;;;;38.25;35.25;;;;;17.39;59.16;99788.97;5030907;28;8849;-77
2022/05/11 04:38:01;;;;;;;;;41.00;34.75;;;;;17.60;58.29;99800.72;5013422;28;8862;-80
2022/05/11 04:40:30;;;;;;;;;41.75;37.00;;;;;17.80;58.11;99797.59;5017765;28;9623;-76
2022/05/11 04:43:00;;;;;;;;;38.50;34.00;;;;;17.99;57.88;99805.94;5034659;28;8841;-77
2022/05/11 04:45:29;;;;;;;;;38.00;34.25;;;;;17.75;57.86;99805.66;5017450;28;8976;-77
2022/05/11 04:47:57;;;;;;;;;36.50;32.00;;;;;17.27;59.87;99812.06;4967833;28;8997;-77
2022/05/11 04:50:26;;;;;;;;;37.00;33.75;;;;;16.90;61.23;99812.03;5033987;28;8864;-79
2022/05/11 04:52:54;;;;;;;;;35.50;34.00;;;;;16.84;61.58;99823.63;4998566;28;8853;-80
2022/05/11 04:55:24;;;;;;;;;43.75;38.00;;;;;16.97;61.60;99818.91;5013963;28;8862;-78
2022/05/11 04:57:53;;;;;;;;;32.75;32.00;;;;;17.24;60.27;99811.28;5025859;28;8885;-78
2022/05/11 05:00:22;;;;;;;;;42.00;36.25;;;;;17.47;59.48;99818.66;5012742;28;8963;-75
2022/05/11 05:02:50;;;;;;;;;43.25;37.50;;;;;17.46;59.60;99816.91;5013542;28;8848;-77
2022/05/11 05:05:20;;;;;;;;;37.00;33.50;;;;;17.62;58.95;99815.63;5013096;28;8836;-79
2022/05/11 05:07:48;;;;;;;;;38.50;35.00;;;;;17.89;58.35;99816.72;5035424;28;8871;-77
2022/05/11 05:10:17;;;;;;;;;41.25;34.75;;;;;18.12;57.92;99816.09;5050136;28;8855;-77
2022/05/11 05:12:47;;;;;;;;;36.00;32.25;;;;;18.18;57.41;99822.13;5033884;28;8836;-77
2022/05/11 05:15:17;;;;;;;;;34.75;31.00;;;;;18.30;56.98;99812.09;5033959;28;8956;-77
2022/05/11 05:17:46;;;;;;;;;32.50;30.25;;;;;18.40;56.45;99819.78;5049671;28;8893;-78
2022/05/11 05:20:15;;;;;;;;;38.00;35.00;;;;;18.32;56.95;99830.56;5032154;28;8856;-78
2022/05/11 05:22:43;;;;;;;;;37.25;33.75;;;;;18.16;57.09;99827.44;5016079;28;9739;-76
2022/05/11 05:25:12;;;;;;;;;28.75;25.50;;;;;18.49;56.80;99824.78;5032131;28;10123;-77
2022/05/11 05:27:41;;;;;;;;;35.25;32.75;;;;;18.69;55.91;99822.44;5032289;28;8981;-78
2022/05/11 05:32:58;;;;;;;;;29.50;28.25;;;;;19.27;54.52;99822.44;5047491;28;10319;-80
2022/05/11 05:35:27;;;;;;;;;29.50;28.00;;;;;19.52;53.56;99820.78;5030724;28;8856;-77
2022/05/11 05:37:56;;;;;;;;;29.00;28.50;;;;;19.76;52.27;99819.16;5056446;28;8990;-76
2022/05/11 05:40:25;;;;;;;;;29.00;29.00;;;;;19.86;51.88;99817.91;5037997;28;8848;-78
2022/05/11 05:42:53;;;;;;;;;36.75;33.00;;;;;20.05;51.49;99819.00;5054104;28;8855;-79
2022/05/11 05:45:25;;;;;;;;;39.75;34.50;;;;;20.24;51.09;99824.53;5035624;28;8874;-78
2022/05/11 05:47:54;;;;;;;;;31.75;30.75;;;;;20.35;50.60;99825.91;5053913;28;8858;-78
2022/05/11 05:50:22;;;;;;;;;29.50;28.00;;;;;20.50;50.14;99824.50;5038411;28;8932;-76
2022/05/11 05:52:53;;;;;;;;;34.00;31.25;;;;;20.63;49.81;99826.66;5037885;28;8866;-79
2022/05/11 05:55:22;;;;;;;;;31.25;27.75;;;;;20.79;49.57;99823.41;5054368;28;8853;-77
2022/05/11 05:57:50;;;;;;;;;30.00;28.50;;;;;20.87;49.54;99826.66;5057875;28;8973;-78
2022/05/11 06:00:27;;;;;;;;;30.25;29.00;;;;;20.99;49.01;99827.97;5077123;28;8849;-80
2022/05/11 06:02:56;;;;;;;;;27.75;25.50;;;;;21.10;48.62;99827.56;5070208;28;8828;-80
2022/05/11 06:05:28;;;;;;;;;26.75;25.75;;;;;21.22;48.28;99833.22;5057208;28;8888;-77
2022/05/11 06:07:57;;;;;;;;;30.25;28.50;;;;;20.98;48.84;99843.00;5058480;28;8836;-80
2022/05/11 06:10:26;;;;;;;;;32.25;30.25;;;;;20.94;49.84;99844.03;5072718;28;8882;-80
2022/05/11 06:12:55;;;;;;;;;32.25;29.00;;;;;21.01;49.51;99840.22;5037712;28;8894;-78
2022/05/11 06:15:25;;;;;;;;;34.50;31.75;;;;;21.05;49.64;99830.38;5050235;28;8849;-80
2022/05/11 06:17:54;;;;;;;;;27.25;26.25;;;;;21.03;49.12;99846.31;5030858;28;9693;-81
2022/05/11 06:20:23;;;;;;;;;28.50;26.75;;;;;21.07;49.30;99840.91;5027548;28;8871;-79
2022/05/11 06:22:53;;;;;;;;;31.00;28.50;;;;;21.23;49.32;99836.75;5013152;28;8884;-79
2022/05/11 06:25:23;;;;;;;;;32.00;31.00;;;;;21.47;48.86;99837.56;4965755;28;8946;-78
2022/05/11 06:27:51;;;;;;;;;22.00;22.00;;;;;21.26;48.03;99838.41;5012655;28;8856;-80
2022/05/11 06:30:20;;;;;;;;;33.25;30.75;;;;;21.13;49.41;99835.38;4997656;28;8898;-80
2022/05/11 06:32:48;;;;;;;;;30.50;28.50;;;;;21.11;49.21;99845.16;4995682;28;9132;-77
2022/05/11 06:35:19;;;;;;;;;8.75;8.25;;;;;20.35;49.69;99849.75;4979867;28;8868;-79
2022/05/11 06:37:48;;;;;;;;;27.50;27.25;;;;;20.49;50.58;99847.47;5045486;28;8863;-77
2022/05/11 06:40:17;;;;;;;;;30.75;28.50;;;;;20.72;50.28;99848.41;4991793;28;9600;-77
2022/05/11 06:42:45;;;;;;;;;27.50;25.25;;;;;20.54;50.60;99849.94;4981792;28;8862;-78
2022/05/11 06:45:14;;;;;;;;;26.00;25.00;;;;;20.47;51.13;99853.72;4955858;28;8972;-78
2022/05/11 06:47:43;;;;;;;;;28.00;26.50;;;;;20.64;50.86;99854.88;4973471;28;8877;-79
2022/05/11 06:50:12;;;;;;;;;31.25;29.00;;;;;20.90;50.09;99847.72;4939824;28;8899;-69
2022/05/11 06:52:42;;;;;;;;;24.75;24.75;;;;;20.78;50.14;99850.84;4986531;28;8999;-70
2022/05/11 07:00:43;;;;;;;;;27.00;24.25;;;;;21.16;49.44;99846.72;5013014;28;9801;-71
2022/05/11 07:03:12;;;;;;;;;28.00;28.00;;;;;21.09;48.87;99852.31;5025903;28;8838;-73
2022/05/11 07:05:44;;;;;;;;;27.75;27.00;;;;;21.05;49.76;99848.94;5009455;28;8854;-73
2022/05/11 07:08:14;;;;;;;;;22.75;20.75;;;;;21.02;49.37;99846.41;5025469;28;8864;-74
2022/05/11 07:12:17;;;;;;;;;27.00;25.25;;;;;21.37;49.12;99845.00;5030023;28;8989;-70
2022/05/11 07:13:33;;;;;;;;;24.25;23.75;;;;;21.77;47.91;99843.38;5063807;28;8909;-76
2022/05/11 07:16:01;;;;;;;;;22.40;21.40;;;;;22.03;46.09;99848.53;5063164;28;8851;-78
2022/05/11 07:18:30;;;;;;;;;35.00;32.25;;;;;21.53;47.13;99836.44;5046708;28;8972;-79
2022/05/11 07:20:58;;;;;;;;;26.75;26.00;;;;;21.84;46.80;99838.69;5046830;28;8846;-76
2022/05/11 07:23:30;;;;;;;;;21.75;21.25;;;;;22.10;46.45;99839.38;5062046;28;8843;-74
2022/05/11 07:26:02;;;;;;;;;28.00;26.50;;;;;22.08;46.37;99836.78;5046882;28;8840;-76
2022/05/11 07:28:31;;;;;;;;;25.50;24.25;;;;;21.97;46.79;99841.69;5045285;28;8831;-77
2022/05/11 07:30:59;;;;;;;;;28.25;26.25;;;;;21.97;47.22;99841.69;5041076;28;8926;-76
2022/05/11 07:33:28;;;;;;;;;24.33;24.33;;;;;22.30;47.14;99842.03;5048703;28;8877;-75
2022/05/11 07:35:57;;;;;;;;;27.00;25.75;;;;;22.45;46.41;99848.47;5047339;28;8864;-77
2022/05/11 07:38:25;;;;;;;;;25.00;24.25;;;;;22.61;45.70;99832.72;5046855;28;8866;-77
2022/05/11 07:40:55;;;;;;;;;29.25;26.75;;;;;22.91;45.99;99841.06;5013334;28;8847;-77
2022/05/11 07:43:24;;;;;;;;;25.50;25.25;;;;;22.55;45.79;99840.94;5047050;28;8862;-75
2022/05/11 07:45:52;;;;;;;;;24.25;23.75;;;;;22.68;45.35;99839.44;5046581;28;8858;-76
2022/05/11 07:48:21;;;;;;;;;20.25;20.25;;;;;23.00;44.90;99841.56;5012885;28;8837;-74
2022/05/11 07:50:50;;;;;;;;;24.50;20.75;;;;;23.22;44.56;99847.63;5066294;28;8862;-76
2022/05/11 07:53:19;;;;;;;;;24.50;24.50;;;;;23.37;43.85;99842.50;5062806;28;8929;-77
2022/05/11 07:59:51;;;;;;;;;22.25;22.25;;;;;23.31;43.57;99841.84;5047116;28;9676;-75
2022/05/11 08:01:24;;;;;;;;;19.50;19.00;;;;;22.38;45.53;99854.97;5038130;28;8888;-78
2022/05/11 08:03:53;;;;;;;;;27.50;23.50;;;;;22.02;46.50;99854.75;5046147;28;8996;-76
2022/05/11 08:06:21;;;;;;;;;24.50;23.50;;;;;22.47;45.96;99853.72;5048141;28;8851;-76
2022/05/11 08:08:50;;;;;;;;;31.25;27.00;;;;;22.84;44.97;99847.59;5065459;28;8847;-76
2022/05/11 08:11:19;;;;;;;;;24.25;23.50;;;;;23.12;44.32;99847.19;5051058;28;8874;-78
2022/05/11 08:13:49;;;;;;;;;23.75;23.75;;;;;22.75;44.96;99848.88;5048503;28;8866;-76
2022/05/11 08:16:18;;;;;;;;;30.50;29.00;;;;;22.78;45.52;99845.22;5061733;28;8850;-76
2022/05/11 08:18:46;;;;;;;;;20.75;20.75;;;;;23.04;45.30;99843.16;5047284;28;8957;-75
2022/05/11 08:21:16;;;;;;;;;27.50;27.50;;;;;22.30;46.62;99844.69;5051621;28;8851;-75
2022/05/11 08:23:45;;;;;;;;;23.00;23.00;;;;;22.61;45.88;99847.78;5066475;28;8843;-76
2022/05/11 08:26:14;;;;;;;;;30.25;28.75;;;;;22.51;46.34;99850.88;5016249;28;8917;-74
2022/05/11 08:28:43;;;;;;;;;28.25;27.50;;;;;22.64;46.27;99844.97;5051512;28;8850;-77
2022/05/11 08:33:59;;;;;;;;;28.25;27.00;;;;;23.17;44.80;99841.63;5051433;28;8858;-78
2022/05/11 08:36:45;;;;;;;;;22.40;22.20;;;;;23.30;45.17;99836.59;5051455;28;8908;-78
2022/05/11 08:39:14;;;;;;;;;27.25;25.50;;;;;23.62;44.25;99839.47;5051186;28;8855;-75
2022/05/11 08:41:47;;;;;;;;;25.50;25.50;;;;;22.70;45.00;99852.69;5032846;28;8839;-73
2022/05/11 08:44:19;;;;;;;;;27.75;26.00;;;;;22.74;45.49;99849.81;5032380;28;8830;-75
2022/05/11 08:47:06;;;;;;;;;25.50;25.50;;;;;22.95;44.99;99847.97;5051139;28;8874;-75
2022/05/11 08:49:47;;;;;;;;;23.60;23.00;;;;;22.80;45.64;99854.00;5050526;28;9593;-73
2022/05/11 08:52:28;;;;;;;;;27.50;25.75;;;;;22.91;45.15;99850.81;5048976;28;8893;-73
2022/05/11 08:55:02;;;;;;;;;27.25;25.50;;;;;23.13;43.69;99853.38;5048513;28;8863;-73
2022/05/11 08:57:36;;;;;;;;;24.20;23.80;;;;;22.53;44.22;99858.75;5049706;28;8873;-73
2022/05/11 09:00:08;;;;;;;;;23.80;22.80;;;;;23.00;44.18;99861.03;5049824;28;8855;-71
2022/05/11 09:02:48;;;;;;;;;25.75;25.50;;;;;23.00;43.08;99855.72;5050552;28;9324;-75
2022/05/11 09:05:19;;;;;;;;;24.25;22.50;;;;;22.76;42.63;99858.59;5050469;28;8843;-77
2022/05/11 09:07:51;;;;;;;;;22.80;22.80;;;;;22.22;43.50;99868.06;5049210;28;8993;-71
2022/05/11 09:10:29;;;;;;;;;24.00;21.00;;;;;22.54;44.36;99863.16;5048095;28;8825;-74
2022/05/11 09:13:02;;;;;;;;;19.60;18.40;;;;;22.36;43.32;99864.81;5070702;28;8852;-74
2022/05/11 09:15:56;;;;;;;;;27.20;23.00;;;;;22.47;42.72;99861.69;5069991;28;8848;-73
2022/05/11 09:18:39;;;;;;;;;17.80;15.60;;;;;22.62;42.81;99858.34;5069010;28;8828;-71
2022/05/11 09:21:24;;;;;;;;;16.00;15.40;;;;;23.11;42.17;99847.25;5056831;28;8981;-71
2022/05/11 09:24:04;;;;;;;;;20.80;19.60;;;;;22.76;42.37;99857.72;5051011;28;9623;-72
2022/05/11 09:26:36;;;;;;;;;16.20;15.40;;;;;22.79;42.18;99844.28;5016184;28;8897;-73
2022/05/11 09:29:18;;;;;;;;;16.60;16.60;;;;;23.27;41.37;99844.72;5051583;28;8842;-71
2022/05/11 09:31:50;;;;;;;;;16.00;16.00;;;;;23.50;41.18;99844.47;5051657;28;8839;-72
2022/05/11 09:34:29;;;;;;;;;19.00;18.60;;;;;23.71;41.10;99844.34;5051684;28;9013;-73
2022/05/11 09:37:01;;;;;;;;;17.00;16.20;;;;;23.36;40.49;99844.28;5030334;28;9415;-75
2022/05/11 09:39:33;;;;;;;;;18.00;17.20;;;;;23.57;40.79;99842.34;5070396;28;8852;-75
2022/05/11 09:42:15;;;;;;;;;18.40;18.40;;;;;23.93;40.31;99841.47;5070017;28;8867;-71
2022/05/11 09:44:46;;;;;;;;;19.20;18.20;;;;;23.77;39.03;99845.84;5070538;28;8946;-71
2022/05/11 09:47:27;;;;;;;;;17.80;16.60;;;;;23.41;39.13;99860.03;5050880;28;8860;-74
2022/05/11 09:50:17;;;;;;;;;15.80;15.60;;;;;23.26;39.89;99857.16;5069253;28;8875;-72
2022/05/11 09:52:46;;;;;;;;;13.80;13.20;;;;;23.68;40.58;99849.81;5049534;28;8871;-73
2022/05/11 09:55:19;;;;;;;;;17.80;15.80;;;;;23.63;39.43;99839.41;5049530;28;9700;-72
2022/05/11 09:57:58;;;;;;;;;15.00;15.00;;;;;23.92;39.42;99840.63;5049759;28;10107;-73
2022/05/11 10:00:33;;;;;;;;;18.80;17.60;;;;;24.29;40.43;99848.50;5049635;28;8900;-72
2022/05/11 10:03:04;;;;;;;;;16.60;16.60;;;;;24.43;37.68;99839.81;5049852;28;8862;-71
2022/05/11 10:05:39;;;;;;;;;15.80;14.60;;;;;24.69;38.66;99841.97;5049536;28;8856;-70
2022/05/11 10:08:20;;;;;;;;;16.20;15.60;;;;;24.89;36.60;99832.00;5049080;28;8846;-70
2022/05/11 10:10:54;;;;;;;;;17.00;15.80;;;;;24.94;36.65;99837.94;5049365;28;8881;-71
2022/05/11 10:13:28;;;;;;;;;14.40;14.40;;;;;24.89;36.12;99830.19;5049249;28;8846;-71
2022/05/11 10:21:54;;;;;;;;;18.60;16.40;;;;;24.01;37.86;99818.00;5049673;28;8859;-71
2022/05/11 10:24:36;;;;;;;;;14.20;13.60;;;;;24.41;37.26;99815.03;5049243;28;8889;-71
2022/05/11 10:27:12;;;;;;;;;16.00;15.40;;;;;24.33;36.49;99808.31;5049324;28;8838;-72
2022/05/11 10:29:58;;;;;;;;;15.40;15.40;;;;;24.38;36.16;99808.03;5047677;28;8843;-68
2022/05/11 10:32:36;;;;;;;;;16.20;16.20;;;;;24.17;36.53;99807.38;5048582;28;8892;-72
2022/05/11 10:35:12;;;;;;;;;22.00;20.80;;;;;24.54;37.28;99800.13;5049275;28;8971;-72
2022/05/11 10:38:03;;;;;;;;;13.40;13.40;;;;;24.64;36.10;99796.00;5048737;28;8953;-71
2022/05/11 10:40:40;;;;;;;;;13.40;13.40;;;;;24.67;36.20;99795.84;5048397;28;8992;-71
2022/05/11 10:43:22;;;;;;;;;14.80;14.80;;;;;24.69;36.14;99795.75;5048483;28;8984;-71
2022/05/11 10:46:17;;;;;;;;;15.00;15.00;;;;;25.04;35.28;99798.25;5046980;28;8966;-72
2022/05/11 10:49:00;;;;;;;;;14.80;14.80;;;;;24.45;36.18;99793.44;5048464;28;8862;-72
2022/05/11 10:51:41;;;;;;;;;16.20;15.00;;;;;23.88;37.05;99798.25;5047070;28;8859;-71
2022/05/11 10:54:18;;;;;;;;;17.60;16.80;;;;;23.72;37.11;99795.47;5048569;28;8835;-72
2022/05/11 10:56:54;;;;;;;;;15.00;14.40;;;;;23.73;36.48;99794.53;5048008;28;8819;-72
2022/05/11 10:59:52;;;;;;;;;16.20;15.20;;;;;23.58;36.04;99801.50;5047951;28;8884;-73
2022/05/11 11:02:59;;;;;;;;;14.40;14.40;;;;;24.06;36.24;99789.28;5048194;28;8889;-72
2022/05/11 11:05:32;;;;;;;;;12.40;12.20;;;;;24.68;36.82;99786.03;5048115;28;8855;-72
2022/05/11 11:08:16;;;;;;;;;15.20;14.60;;;;;25.20;35.72;99783.09;5048560;28;8854;-72
2022/05/11 11:10:51;;;;;;;;;12.20;12.20;;;;;25.71;33.65;99781.97;5016468;28;8875;-71
2022/05/11 11:13:31;;;;;;;;;14.80;14.00;;;;;26.18;33.63;99786.28;5049019;28;8839;-73
2022/05/11 11:16:03;;;;;;;;;15.20;13.60;;;;;26.68;32.86;99774.28;5048762;28;8886;-73
2022/05/11 11:18:38;;;;;;;;;15.00;14.60;;;;;26.33;32.26;99777.31;5031048;28;8854;-73
2022/05/11 11:21:10;;;;;;;;;21.75;21.25;;;;;26.51;32.22;99771.78;5048081;28;8883;-73
2022/05/11 11:23:41;;;;;;;;;18.25;18.00;;;;;25.80;32.50;99771.63;5048086;28;8866;-73
2022/05/11 11:26:14;;;;;;;;;14.20;13.60;;;;;26.13;31.86;99777.72;5048167;28;8847;-72
2022/05/11 11:29:21;;;;;;;;;13.00;13.00;;;;;26.68;31.26;99774.28;5048299;28;8862;-75
2022/05/11 11:32:13;;;;;;;;;16.40;14.80;;;;;27.14;30.02;99775.78;4985651;28;8858;-72
2022/05/11 11:34:49;;;;;;;;;11.00;11.00;;;;;27.59;29.44;99758.50;4985810;28;8897;-72
2022/05/11 11:37:42;;;;;;;;;15.40;14.80;;;;;28.13;30.86;99762.88;4985941;28;8988;-73
2022/05/11 11:40:24;;;;;;;;;12.40;12.40;;;;;28.50;29.22;99745.97;4968710;28;8832;-73
2022/05/11 11:42:54;;;;;;;;;12.60;11.20;;;;;28.76;29.38;99763.75;5004528;28;8887;-73
2022/05/11 11:46:00;;;;;;;;;14.00;12.20;;;;;27.33;29.75;99775.47;5005351;28;8848;-72
2022/05/11 11:48:29;;;;;;;;;14.20;14.20;;;;;26.44;31.33;99769.47;5005419;28;8875;-76
2022/05/11 11:51:01;;;;;;;;;12.20;12.20;;;;;25.71;31.85;99776.63;5005378;28;8852;-72
2022/05/11 11:53:56;;;;;;;;;13.20;13.20;;;;;25.74;32.47;99773.78;5005875;28;8978;-74
2022/05/11 11:56:47;;;;;;;;;16.80;16.20;;;;;25.56;31.62;99773.06;5006101;28;8848;-72
2022/05/11 11:59:41;;;;;;;;;13.60;13.60;;;;;25.25;31.84;99769.50;4973668;28;8839;-72
2022/05/11 12:02:22;;;;;;;;;12.60;12.60;;;;;24.84;33.37;99778.03;5005709;28;8994;-72
2022/05/11 12:05:02;;;;;;;;;11.00;10.00;;;;;25.25;32.48;99764.16;5006227;28;8937;-73
2022/05/11 12:16:18;;;;;;;;;11.60;11.20;;;;;27.92;30.19;99751.81;5067524;28;8837;-72
2022/05/11 12:18:48;;;;;;;;;9.20;9.00;;;;;28.43;27.51;99744.69;5063252;28;9023;-72
2022/05/11 12:21:26;;;;;;;;;11.00;9.60;;;;;28.84;27.20;99747.09;5047133;28;8859;-73
2022/05/11 12:23:56;;;;;;;;;11.40;11.40;;;;;28.59;26.19;99756.09;5047524;28;8850;-73
2022/05/11 12:26:28;;;;;;;;;11.80;11.80;;;;;28.88;25.99;99751.25;5047277;28;8904;-74